Time;durP1;ratioP1;P1;durP2;ratioP2;P2;SDS_P1;SDS_P2;PMS_P1;PMS_P2;Temp;Humidity;BMP_temperature;BMP_pressure;BME280_temperature;BME280_humidity;BME280_pressure;Samples;Min_cycle;Max_cycle;Signal;HPM_P1;HPM_P2
2023/06/01 00:00:09;;;;;;;17.48;6.20;;;;;;;14.97;100.00;101809.91;5015777;28;20045;-74
2023/06/01 00:02:36;;;;;;;14.20;5.95;;;;;;;14.93;100.00;101806.38;5006967;28;20100;-75
2023/06/01 00:05:02;;;;;;;16.80;6.47;;;;;;;14.79;100.00;101812.94;5007252;28;20852;-75
2023/06/01 00:07:29;;;;;;;18.92;7.15;;;;;;;14.78;100.00;101814.16;5008104;28;20042;-72
2023/06/01 00:09:56;;;;;;;14.63;6.65;;;;;;;14.73;100.00;101813.84;5013875;28;20112;-76
2023/06/01 00:12:23;;;;;;;20.05;5.82;;;;;;;14.66;100.00;101811.13;5016646;28;20049;-75
2023/06/01 00:14:49;;;;;;;15.52;6.13;;;;;;;14.60;100.00;101816.41;5007600;28;20081;-74
2023/06/01 00:17:16;;;;;;;16.33;6.22;;;;;;;14.54;100.00;101806.06;5015409;28;20054;-75
2023/06/01 00:19:44;;;;;;;17.45;7.10;;;;;;;14.49;100.00;101814.94;5030535;28;20136;-74
2023/06/01 00:22:11;;;;;;;18.85;6.63;;;;;;;14.44;100.00;101809.78;5014854;28;20453;-73
2023/06/01 00:24:38;;;;;;;15.73;7.07;;;;;;;14.42;100.00;101815.03;5014612;28;20634;-73
2023/06/01 00:27:05;;;;;;;15.38;6.43;;;;;;;14.32;100.00;101804.72;5002542;28;20045;-71
2023/06/01 00:29:31;;;;;;;18.02;8.30;;;;;;;14.28;100.00;101810.34;5014637;28;20100;-74
2023/06/01 00:31:58;;;;;;;17.00;7.40;;;;;;;14.20;100.00;101808.03;5007081;28;20124;-72
2023/06/01 00:34:25;;;;;;;20.45;7.13;;;;;;;14.19;100.00;101812.88;5013505;28;20096;-73
2023/06/01 00:36:54;;;;;;;17.25;6.80;;;;;;;14.13;100.00;101799.72;5024340;28;20510;-72
2023/06/01 00:39:20;;;;;;;19.95;6.18;;;;;;;14.11;100.00;101804.97;5021371;28;20565;-74
2023/06/01 00:41:47;;;;;;;20.45;7.32;;;;;;;14.01;100.00;101801.06;5017221;28;20054;-74
2023/06/01 00:44:14;;;;;;;17.33;6.60;;;;;;;13.95;100.00;101791.56;5006891;28;20057;-76
2023/06/01 00:46:40;;;;;;;18.27;7.22;;;;;;;13.84;100.00;101795.66;5007450;28;20141;-75
2023/06/01 00:49:07;;;;;;;20.13;7.70;;;;;;;13.86;100.00;101796.03;5022808;28;20057;-72
2023/06/01 00:51:35;;;;;;;19.55;7.20;;;;;;;13.80;100.00;101797.66;5006389;28;20484;-72
2023/06/01 00:54:02;;;;;;;19.38;7.43;;;;;;;13.77;100.00;101790.13;5018151;28;20083;-72
2023/06/01 00:56:28;;;;;;;17.30;6.65;;;;;;;13.75;100.00;101792.53;5017611;28;20046;-72
2023/06/01 00:58:59;;;;;;;20.45;7.00;;;;;;;13.70;100.00;101790.16;5021535;28;20136;-74
2023/06/01 01:01:26;;;;;;;18.70;6.70;;;;;;;13.68;100.00;101798.19;5025888;28;20224;-72
2023/06/01 01:03:57;;;;;;;16.75;7.32;;;;;;;13.62;100.00;101799.84;5011651;28;20057;-75
2023/06/01 01:06:39;;;;;;;18.55;6.75;;;;;;;13.55;100.00;101797.91;5011104;28;20073;-75
2023/06/01 01:09:07;;;;;;;18.77;7.05;;;;;;;13.57;100.00;101801.06;5007047;28;20052;-70
2023/06/01 01:11:36;;;;;;;18.70;7.32;;;;;;;13.47;100.00;101801.19;5022559;28;20731;-71
2023/06/01 01:14:22;;;;;;;20.55;7.47;;;;;;;13.40;100.00;101809.59;5020786;28;20141;-73
2023/06/01 01:16:59;;;;;;;20.42;8.07;;;;;;;13.37;100.00;101805.59;5020888;28;20081;-70
2023/06/01 01:19:35;;;;;;;20.63;9.15;;;;;;;13.34;100.00;101814.81;5018421;28;20057;-73
2023/06/01 01:22:16;;;;;;;20.45;7.88;;;;;;;13.23;100.00;101810.50;5018485;28;20138;-72
2023/06/01 01:24:51;;;;;;;23.52;8.20;;;;;;;13.19;100.00;101804.94;5020837;28;20136;-73
2023/06/01 01:27:40;;;;;;;25.20;9.27;;;;;;;13.14;100.00;101808.16;5019135;28;20132;-71
2023/06/01 01:30:07;;;;;;;23.85;8.48;;;;;;;13.06;100.00;101806.59;5006991;28;20063;-72
2023/06/01 01:32:35;;;;;;;20.40;8.40;;;;;;;13.09;100.00;101813.38;5017444;28;20042;-73
2023/06/01 01:35:05;;;;;;;19.13;8.27;;;;;;;13.00;100.00;101813.03;5010265;28;20069;-72
2023/06/01 01:37:34;;;;;;;25.15;8.75;;;;;;;13.00;100.00;101813.03;5010536;28;20073;-72
2023/06/01 01:40:01;;;;;;;22.17;8.70;;;;;;;12.94;100.00;101811.88;5017708;28;20084;-72
2023/06/01 01:42:28;;;;;;;23.65;8.15;;;;;;;12.89;100.00;101813.09;5010339;28;20081;-71
2023/06/01 01:44:55;;;;;;;24.15;8.93;;;;;;;12.82;100.00;101817.94;5025232;28;20100;-76
2023/06/01 01:47:36;;;;;;;23.08;9.35;;;;;;;12.73;100.00;101812.78;5010162;28;20053;-76
2023/06/01 01:50:06;;;;;;;21.65;9.82;;;;;;;12.69;100.00;101812.00;5005330;28;20667;-71
2023/06/01 01:52:37;;;;;;;23.70;8.30;;;;;;;12.67;100.00;101806.03;5013878;28;20108;-74
2023/06/01 01:55:08;;;;;;;20.45;8.35;;;;;;;12.60;100.00;101805.28;5000999;28;20041;-73
2023/06/01 01:57:36;;;;;;;23.77;10.20;;;;;;;12.52;100.00;101812.09;5021990;28;20863;-75
2023/06/01 02:00:05;;;;;;;26.80;9.00;;;;;;;12.46;100.00;101818.06;5000372;28;20529;-73
2023/06/01 02:02:32;;;;;;;21.48;9.43;;;;;;;12.43;100.00;101810.50;5013121;28;20072;-74
2023/06/01 02:04:59;;;;;;;24.00;8.82;;;;;;;12.36;100.00;101806.97;5017664;28;20046;-73
2023/06/01 02:07:25;;;;;;;24.45;10.23;;;;;;;12.32;100.00;101826.47;5024831;28;20077;-74
2023/06/01 02:09:51;;;;;;;20.27;8.77;;;;;;;12.27;100.00;101824.09;5018647;28;20132;-75
2023/06/01 02:12:18;;;;;;;25.33;9.50;;;;;;;12.24;100.00;101816.53;5015370;28;20041;-73
2023/06/01 02:14:45;;;;;;;22.95;9.27;;;;;;;12.16;100.00;101814.16;5012113;28;20112;-74
2023/06/01 02:17:15;;;;;;;21.25;9.75;;;;;;;12.13;100.00;101821.31;5009460;28;20148;-74
2023/06/01 02:19:43;;;;;;;22.80;9.18;;;;;;;12.02;100.00;101820.56;5010467;28;20077;-74
2023/06/01 02:22:09;;;;;;;25.70;9.32;;;;;;;12.00;100.00;101811.81;5029437;28;20064;-74
2023/06/01 02:24:36;;;;;;;25.25;9.38;;;;;;;12.00;100.00;101828.53;5020533;28;20049;-74
2023/06/01 02:27:03;;;;;;;24.40;9.77;;;;;;;11.94;100.00;101818.19;5008074;28;20111;-72
2023/06/01 02:29:30;;;;;;;24.45;10.45;;;;;;;11.88;100.00;101823.38;5009552;28;20045;-75
2023/06/01 02:31:57;;;;;;;22.13;8.55;;;;;;;11.86;100.00;101820.19;5012187;28;20568;-74
2023/06/01 02:34:23;;;;;;;27.27;11.10;;;;;;;11.78;100.00;101817.81;5009157;28;20052;-72
2023/06/01 02:36:50;;;;;;;25.05;10.95;;;;;;;11.66;100.00;101815.44;5010465;28;20049;-74
2023/06/01 02:39:17;;;;;;;23.75;11.38;;;;;;;11.59;100.00;101819.03;5015270;28;20045;-74
2023/06/01 02:41:44;;;;;;;23.92;9.63;;;;;;;11.51;100.00;101816.63;5009161;28;20045;-74
2023/06/01 02:44:10;;;;;;;27.10;10.77;;;;;;;11.52;100.00;101826.56;5013189;28;20518;-74
2023/06/01 02:46:37;;;;;;;24.65;10.73;;;;;;;11.61;100.00;101824.16;5039289;28;20049;-77
2023/06/01 02:49:03;;;;;;;27.63;10.45;;;;;;;11.60;100.00;101817.81;5004825;28;20099;-74
2023/06/01 02:51:31;;;;;;;26.63;10.85;;;;;;;11.62;100.00;101817.44;5022069;28;20073;-74
2023/06/01 02:53:58;;;;;;;28.98;11.35;;;;;;;11.56;100.00;101824.59;5017003;28;20547;-73
2023/06/01 02:56:25;;;;;;;26.70;11.13;;;;;;;11.55;100.00;101821.00;5009714;28;20046;-75
2023/06/01 02:58:52;;;;;;;26.73;11.80;;;;;;;11.50;100.00;101828.94;5009001;28;20049;-73
2023/06/01 03:01:20;;;;;;;28.58;13.10;;;;;;;11.47;100.00;101821.38;5009588;28;20560;-74
2023/06/01 03:03:48;;;;;;;27.42;11.82;;;;;;;11.43;100.00;101820.59;5011688;28;20453;-74
2023/06/01 03:06:17;;;;;;;28.48;10.80;;;;;;;11.45;100.00;101821.00;5023390;28;20046;-72
2023/06/01 03:08:45;;;;;;;24.75;11.35;;;;;;;11.45;100.00;101813.44;5016921;28;20057;-73
2023/06/01 03:11:11;;;;;;;24.77;12.07;;;;;;;11.43;100.00;101817.81;5007909;28;20049;-74
2023/06/01 03:13:38;;;;;;;27.55;11.82;;;;;;;11.39;100.00;101812.25;5008761;28;20048;-74
2023/06/01 03:16:04;;;;;;;25.58;11.65;;;;;;;11.37;100.00;101827.75;5011514;28;20092;-74
2023/06/01 03:18:31;;;;;;;23.45;11.07;;;;;;;11.33;100.00;101815.81;5011420;28;20042;-74
2023/06/01 03:20:57;;;;;;;22.60;11.27;;;;;;;11.30;100.00;101822.16;5016315;28;20050;-74
2023/06/01 03:23:25;;;;;;;23.52;10.07;;;;;;;11.21;100.00;101825.31;5008152;28;20037;-74
2023/06/01 03:25:51;;;;;;;24.80;11.02;;;;;;;11.19;100.00;101833.28;5018438;28;20571;-75
2023/06/01 03:28:18;;;;;;;25.20;11.48;;;;;;;11.20;100.00;101834.84;5022532;28;20041;-74
2023/06/01 03:30:46;;;;;;;25.48;10.45;;;;;;;11.20;100.00;101840.44;5007537;28;20088;-75
2023/06/01 03:33:13;;;;;;;28.40;10.82;;;;;;;11.16;100.00;101842.41;5011254;28;20077;-75
2023/06/01 03:35:40;;;;;;;28.05;11.55;;;;;;;11.18;100.00;101842.78;5008065;28;20138;-75
2023/06/01 03:38:07;;;;;;;24.05;10.52;;;;;;;11.19;100.00;101833.28;5008052;28;20049;-74
2023/06/01 03:40:33;;;;;;;25.35;12.60;;;;;;;11.11;100.00;101828.09;5006617;28;20096;-74
2023/06/01 03:43:00;;;;;;;23.73;11.20;;;;;;;11.00;100.00;101830.84;5015743;28;20081;-74
2023/06/01 03:45:27;;;;;;;23.92;11.57;;;;;;;10.91;100.00;101835.19;5009560;28;20045;-76
2023/06/01 03:47:53;;;;;;;22.65;10.27;;;;;;;10.84;100.00;101840.72;5018329;28;20054;-75
2023/06/01 03:50:20;;;;;;;28.77;11.30;;;;;;;10.76;100.00;101837.13;5013077;28;20056;-73
2023/06/01 03:52:47;;;;;;;24.98;10.75;;;;;;;10.71;100.00;101837.50;5008774;28;20054;-75
2023/06/01 03:55:13;;;;;;;28.35;11.32;;;;;;;10.57;100.00;101842.22;5013920;28;20073;-73
2023/06/01 03:57:40;;;;;;;25.73;11.98;;;;;;;10.60;100.00;101838.66;5007831;28;20096;-71
2023/06/01 04:00:17;;;;;;;31.25;14.10;;;;;;;10.56;100.00;101835.84;5023307;28;20054;-73
2023/06/01 04:02:58;;;;;;;21.90;10.25;;;;;;;10.49;100.00;101833.03;5011348;28;20060;-74
2023/06/01 04:05:26;;;;;;;21.67;9.77;;;;;;;10.43;100.00;101845.72;5013165;28;20089;-75
2023/06/01 04:07:54;;;;;;;27.73;11.30;;;;;;;10.37;100.00;101835.38;5006947;28;20500;-73
2023/06/01 04:10:21;;;;;;;27.23;12.32;;;;;;;10.37;100.00;101840.91;5013591;28;20136;-74
2023/06/01 04:12:49;;;;;;;27.13;10.48;;;;;;;10.38;100.00;101839.72;5009399;28;20120;-74
2023/06/01 04:15:18;;;;;;;27.40;11.25;;;;;;;10.38;100.00;101843.31;5007951;28;20054;-74
2023/06/01 04:17:45;;;;;;;24.55;11.52;;;;;;;10.35;100.00;101848.84;5008566;28;20167;-74
2023/06/01 04:20:16;;;;;;;29.30;12.32;;;;;;;10.37;100.00;101841.72;5026898;28;20053;-73
2023/06/01 04:22:45;;;;;;;27.45;10.77;;;;;;;10.45;100.00;101846.13;5026207;28;20056;-74
2023/06/01 04:25:18;;;;;;;24.15;10.95;;;;;;;10.47;100.00;101846.53;5005992;28;20497;-72
2023/06/01 04:27:47;;;;;;;26.40;11.45;;;;;;;10.50;100.00;101845.75;5011983;28;20050;-74
2023/06/01 04:30:16;;;;;;;27.55;12.23;;;;;;;10.54;100.00;101846.59;5006592;28;20628;-72
2023/06/01 04:32:47;;;;;;;24.65;10.90;;;;;;;10.53;100.00;101856.09;5009992;28;20064;-73
2023/06/01 04:35:15;;;;;;;23.95;11.20;;;;;;;10.52;100.00;101851.72;5018950;28;20061;-72
2023/06/01 04:37:43;;;;;;;27.45;11.30;;;;;;;10.51;100.00;101843.78;5006593;28;20122;-73
2023/06/01 04:40:12;;;;;;;25.23;10.55;;;;;;;10.63;100.00;101852.56;5011063;28;20053;-72
2023/06/01 04:42:41;;;;;;;22.15;10.27;;;;;;;10.74;100.00;101858.97;5010491;28;20088;-73
2023/06/01 04:45:11;;;;;;;26.25;10.38;;;;;;;10.78;100.00;101859.78;5014833;28;20538;-74
2023/06/01 04:47:39;;;;;;;27.02;10.88;;;;;;;10.74;100.00;101855.41;5007680;28;20077;-73
2023/06/01 04:50:08;;;;;;;24.70;10.95;;;;;;;10.64;100.00;101853.38;5012936;28;20427;-73
2023/06/01 04:52:41;;;;;;;26.08;10.40;;;;;;;10.70;100.00;101854.59;5001740;28;20056;-73
2023/06/01 04:55:09;;;;;;;24.67;10.05;;;;;;;10.80;100.00;101859.41;5007139;28;20045;-71
2023/06/01 04:57:36;;;;;;;25.30;11.10;;;;;;;10.85;100.00;101854.25;5005299;28;20050;-74
2023/06/01 05:00:11;;;;;;;28.10;10.57;;;;;;;10.89;100.00;101852.28;5003471;28;20103;-72
2023/06/01 05:02:43;;;;;;;22.00;10.47;;;;;;;10.94;100.00;101854.66;5013537;28;20129;-74
2023/06/01 05:05:11;;;;;;;22.88;10.13;;;;;;;11.03;100.00;101849.53;5010433;28;20388;-74
2023/06/01 05:07:38;;;;;;;27.30;11.32;;;;;;;11.10;100.00;101849.53;5005585;28;20050;-73
2023/06/01 05:10:07;;;;;;;24.42;10.63;;;;;;;11.11;100.00;101853.91;5006375;28;20133;-73
2023/06/01 05:12:34;;;;;;;22.23;10.32;;;;;;;11.07;100.00;101847.53;5015253;28;20056;-73
2023/06/01 05:15:03;;;;;;;23.42;10.48;;;;;;;11.04;100.00;101851.13;5014873;28;20100;-73
2023/06/01 05:17:29;;;;;;;19.55;8.70;;;;;;;10.94;100.00;101848.31;5001459;28;20097;-72
2023/06/01 05:19:57;;;;;;;25.20;11.32;;;;;;;10.97;100.00;101845.53;5006285;28;20050;-74
2023/06/01 05:22:24;;;;;;;21.90;9.25;;;;;;;11.03;100.00;101843.97;5004855;28;20185;-72
2023/06/01 05:24:51;;;;;;;21.17;9.70;;;;;;;10.97;100.00;101844.75;5006903;28;20128;-74
2023/06/01 05:27:18;;;;;;;25.45;10.57;;;;;;;11.01;100.00;101843.56;5012626;28;20643;-73
2023/06/01 05:29:44;;;;;;;25.00;10.27;;;;;;;11.08;100.00;101853.91;5014187;28;20092;-74
2023/06/01 05:32:11;;;;;;;22.95;9.80;;;;;;;11.09;100.00;101845.19;5019546;28;20037;-73
2023/06/01 05:34:37;;;;;;;20.75;9.85;;;;;;;11.13;100.00;101854.31;5017866;28;20449;-74
2023/06/01 05:37:04;;;;;;;22.20;9.85;;;;;;;11.19;100.00;101849.97;5004172;28;20109;-73
2023/06/01 05:39:30;;;;;;;24.80;9.68;;;;;;;11.27;100.00;101854.38;5016816;28;20069;-74
2023/06/01 05:41:57;;;;;;;25.73;10.10;;;;;;;11.33;100.00;101861.16;5009621;28;20950;-74
2023/06/01 05:44:24;;;;;;;23.15;9.38;;;;;;;11.40;100.00;101861.19;5018387;28;20155;-74
2023/06/01 05:46:52;;;;;;;24.10;9.77;;;;;;;11.49;100.00;101853.25;5008512;28;20061;-73
2023/06/01 05:49:19;;;;;;;22.33;10.68;;;;;;;11.58;100.00;101859.19;5017703;28;20054;-74
2023/06/01 05:51:46;;;;;;;23.85;9.80;;;;;;;11.62;100.00;101854.41;5019059;28;20081;-73
2023/06/01 05:54:12;;;;;;;23.98;10.23;;;;;;;11.66;100.00;101857.22;5016582;28;20050;-74
2023/06/01 05:56:42;;;;;;;20.20;9.25;;;;;;;11.67;100.00;101858.78;5018085;28;20065;-73
2023/06/01 05:59:08;;;;;;;23.83;9.52;;;;;;;11.74;100.00;101851.25;5007561;28;20049;-74
2023/06/01 06:01:36;;;;;;;21.00;9.55;;;;;;;11.82;100.00;101855.59;5014794;28;20108;-72
2023/06/01 06:04:03;;;;;;;22.13;10.05;;;;;;;11.90;100.00;101854.44;5001979;28;20060;-73
2023/06/01 06:06:30;;;;;;;20.20;9.65;;;;;;;11.96;100.00;101850.03;5009868;28;20125;-74
2023/06/01 06:08:58;;;;;;;26.45;9.80;;;;;;;11.99;100.00;101849.22;5009223;28;20064;-73
2023/06/01 06:11:25;;;;;;;23.55;9.23;;;;;;;11.98;100.00;101838.47;5017782;28;20133;-73
2023/06/01 06:13:52;;;;;;;23.33;9.18;;;;;;;12.04;100.00;101839.66;5016751;28;20054;-73
2023/06/01 06:16:19;;;;;;;22.08;9.77;;;;;;;12.05;100.00;101836.47;5010645;28;20053;-74
2023/06/01 06:18:46;;;;;;;26.10;9.60;;;;;;;12.08;100.00;101852.41;5017815;28;20393;-73
2023/06/01 06:21:12;;;;;;;24.23;9.90;;;;;;;12.05;100.00;101849.63;5014112;28;20096;-74
2023/06/01 06:23:41;;;;;;;20.30;9.27;;;;;;;12.10;100.00;101852.00;5028733;28;20049;-74
2023/06/01 06:26:07;;;;;;;22.58;9.50;;;;;;;12.13;100.00;101842.84;5021871;28;20083;-75
2023/06/01 06:28:34;;;;;;;31.52;10.05;;;;;;;12.14;100.00;101831.28;5013325;28;20448;-74
2023/06/01 06:31:01;;;;;;;23.33;9.13;;;;;;;12.27;100.00;101837.22;5010772;28;20049;-74
2023/06/01 06:33:28;;;;;;;21.77;10.20;;;;;;;12.28;100.00;101838.81;5020938;28;20048;-74
2023/06/01 06:35:54;;;;;;;19.95;9.73;;;;;;;12.34;100.00;101843.59;5012282;28;20054;-73
2023/06/01 06:38:21;;;;;;;24.90;10.05;;;;;;;12.41;100.00;101845.59;5023459;28;20129;-72
2023/06/01 06:40:48;;;;;;;19.77;9.07;;;;;;;12.53;100.00;101850.75;5008531;28;20092;-73
2023/06/01 06:43:15;;;;;;;22.38;8.98;;;;;;;12.52;100.00;101852.72;5007630;28;20050;-73
2023/06/01 06:45:41;;;;;;;25.23;9.60;;;;;;;12.45;100.00;101849.16;5026455;28;20074;-74
2023/06/01 06:48:08;;;;;;;18.92;8.88;;;;;;;12.41;100.00;101848.38;5022983;28;20053;-74
2023/06/01 06:50:35;;;;;;;25.30;9.57;;;;;;;12.44;100.00;101853.97;5015922;28;20057;-74
2023/06/01 06:53:01;;;;;;;22.73;9.82;;;;;;;12.48;100.00;101859.50;5020435;28;20084;-74
2023/06/01 06:55:28;;;;;;;23.10;9.57;;;;;;;12.49;100.00;101852.72;5008566;28;20046;-74
2023/06/01 06:57:55;;;;;;;24.63;9.93;;;;;;;12.44;100.00;101858.72;5016223;28;20147;-75
2023/06/01 07:00:22;;;;;;;23.67;9.98;;;;;;;12.53;100.00;101868.25;5008810;28;20038;-76
2023/06/01 07:02:48;;;;;;;21.15;9.65;;;;;;;12.63;100.00;101869.44;5012027;28;20408;-72
2023/06/01 07:05:15;;;;;;;19.92;9.98;;;;;;;12.69;100.00;101867.03;5005719;28;20052;-73
2023/06/01 07:07:42;;;;;;;22.15;9.43;;;;;;;12.77;100.00;101865.78;5005704;28;20086;-76
2023/06/01 07:10:08;;;;;;;20.92;9.60;;;;;;;12.80;100.00;101870.56;5006457;28;20042;-75
2023/06/01 07:12:35;;;;;;;26.08;10.48;;;;;;;12.87;100.00;101870.53;5017118;28;20074;-74
2023/06/01 07:15:02;;;;;;;21.38;11.05;;;;;;;12.97;100.00;101870.50;5016254;28;20132;-75
2023/06/01 07:17:29;;;;;;;21.20;9.85;;;;;;;12.94;100.00;101867.69;5008512;28;20069;-75
2023/06/01 07:19:55;;;;;;;23.25;10.35;;;;;;;13.07;100.00;101864.06;5018777;28;20474;-75
2023/06/01 07:22:22;;;;;;;24.70;9.57;;;;;;;13.25;100.00;101861.13;5007317;28;20484;-75
2023/06/01 07:24:49;;;;;;;23.80;9.77;;;;;;;13.34;100.00;101861.50;5026700;28;20099;-72
2023/06/01 07:27:17;;;;;;;22.52;10.88;;;;;;;13.44;100.00;101861.44;5014639;28;20518;-75
2023/06/01 07:29:44;;;;;;;25.65;9.35;;;;;;;13.49;100.00;101866.59;5017101;28;20054;-76
2023/06/01 07:32:11;;;;;;;22.42;9.00;;;;;;;13.62;100.00;101855.72;5013026;28;20038;-75
2023/06/01 07:34:38;;;;;;;19.48;9.27;;;;;;;13.72;100.00;101871.63;5007240;28;20492;-76
2023/06/01 07:37:05;;;;;;;26.33;11.13;;;;;;;13.76;100.00;101869.56;5006433;28;20052;-75
2023/06/01 07:39:43;;;;;;;23.50;8.70;;;;;;;13.81;100.00;101867.13;5004007;28;20065;-75
2023/06/01 07:42:10;;;;;;;25.00;10.82;;;;;;;13.91;100.00;101869.03;5019524;28;20046;-73
2023/06/01 07:44:36;;;;;;;25.05;10.73;;;;;;;14.00;100.00;101871.38;5010507;28;20129;-76
2023/06/01 07:47:03;;;;;;;31.92;13.45;;;;;;;13.99;100.00;101869.78;5006592;28;20846;-73
2023/06/01 07:49:30;;;;;;;23.92;11.32;;;;;;;14.02;100.00;101869.75;5007094;28;20042;-72
2023/06/01 07:51:58;;;;;;;32.58;14.02;;;;;;;13.89;100.00;101871.47;5015372;28;20042;-76
2023/06/01 07:54:25;;;;;;;26.60;12.32;;;;;;;13.79;100.00;101877.16;4991924;28;20165;-74
2023/06/01 07:56:52;;;;;;;26.27;12.25;;;;;;;13.79;100.00;101879.94;5006507;28;20086;-72
2023/06/01 07:59:21;;;;;;;28.30;11.50;;;;;;;13.96;100.00;101879.81;5003074;28;20104;-73
2023/06/01 08:01:55;;;;;;;24.60;10.80;;;;;;;14.10;100.00;101876.06;5008954;28;20046;-72
2023/06/01 08:04:23;;;;;;;26.58;12.00;;;;;;;14.15;100.00;101870.03;5010409;28;20049;-74
2023/06/01 08:06:52;;;;;;;32.45;15.18;;;;;;;14.13;100.00;101875.25;5005764;28;20515;-71
2023/06/01 08:09:21;;;;;;;28.92;13.55;;;;;;;14.16;100.00;101869.63;5007171;28;20096;-71
2023/06/01 08:11:48;;;;;;;30.65;14.95;;;;;;;14.19;100.00;101868.00;5005874;28;20037;-73
2023/06/01 08:14:16;;;;;;;29.75;14.75;;;;;;;14.08;100.00;101854.09;5003947;28;20057;-73
2023/06/01 08:16:43;;;;;;;32.50;17.00;;;;;;;14.02;100.00;101858.59;5008376;28;20125;-73
2023/06/01 08:19:09;;;;;;;29.38;14.90;;;;;;;14.04;100.00;101861.75;5005559;28;20044;-73
2023/06/01 08:21:36;;;;;;;30.90;15.57;;;;;;;14.04;100.00;101860.97;5007114;28;20072;-73
2023/06/01 08:24:03;;;;;;;31.88;14.50;;;;;;;14.08;100.00;101858.94;5007300;28;20107;-73
2023/06/01 08:26:30;;;;;;;32.03;15.32;;;;;;;14.10;100.00;101853.69;5016259;28;20068;-72
2023/06/01 08:28:56;;;;;;;31.80;14.32;;;;;;;14.06;100.00;101847.34;5006883;28;20046;-73
2023/06/01 08:31:24;;;;;;;30.60;12.57;;;;;;;14.01;100.00;101847.81;5005761;28;20089;-73
2023/06/01 08:33:52;;;;;;;33.38;14.13;;;;;;;13.87;100.00;101837.53;5015443;28;20049;-74
2023/06/01 08:36:20;;;;;;;32.90;16.33;;;;;;;13.93;100.00;101849.88;5007984;28;20048;-74
2023/06/01 08:38:49;;;;;;;31.05;14.23;;;;;;;13.97;100.00;101845.03;5007996;28;20141;-73
2023/06/01 08:41:40;;;;;;;31.67;14.85;;;;;;;14.02;100.00;101830.63;5015292;28;20120;-74
2023/06/01 08:44:08;;;;;;;36.25;19.85;;;;;;;14.17;100.00;101834.03;4997064;28;20073;-73
2023/06/01 08:46:36;;;;;;;42.30;20.13;;;;;;;14.30;100.00;101838.72;5010965;28;20049;-72
2023/06/01 08:49:06;;;;;;;34.58;15.30;;;;;;;14.29;100.00;101844.72;5013977;28;20073;-75
2023/06/01 08:51:36;;;;;;;36.72;16.98;;;;;;;14.29;100.00;101833.53;5013419;28;20111;-73
2023/06/01 08:54:05;;;;;;;32.88;15.40;;;;;;;14.41;100.00;101830.19;4997862;28;20062;-73
2023/06/01 08:56:32;;;;;;;32.85;16.42;;;;;;;14.56;100.00;101831.66;5003165;28;20050;-71
2023/06/01 08:58:59;;;;;;;32.72;16.23;;;;;;;14.80;100.00;101824.94;5010521;28;20112;-70
2023/06/01 09:01:27;;;;;;;37.47;16.77;;;;;;;14.98;100.00;101815.09;5006636;28;20049;-73
2023/06/01 09:03:54;;;;;;;32.95;15.65;;;;;;;15.18;100.00;101820.00;4998788;28;20081;-72
2023/06/01 09:06:21;;;;;;;29.30;16.80;;;;;;;15.26;100.00;101813.84;5008844;28;20196;-74
2023/06/01 09:08:47;;;;;;;32.65;16.73;;;;;;;15.39;100.00;101806.47;5010542;28;20065;-75
2023/06/01 09:11:14;;;;;;;31.42;17.83;;;;;;;15.51;100.00;101810.69;5007744;28;20049;-73
2023/06/01 09:13:41;;;;;;;35.33;17.90;;;;;;;15.60;100.00;101814.56;5021543;28;20077;-72
2023/06/01 09:16:07;;;;;;;29.38;14.43;;;;;;;15.66;100.00;101812.84;5021658;28;20049;-72
2023/06/01 09:18:34;;;;;;;31.50;14.70;;;;;;;15.76;100.00;101809.06;5000250;28;20104;-72
2023/06/01 09:21:11;;;;;;;27.83;15.20;;;;;;;15.80;100.00;101797.78;5010604;28;20364;-71
2023/06/01 09:23:38;;;;;;;29.45;13.48;;;;;;;15.92;100.00;101800.78;5009096;28;20475;-73
2023/06/01 09:26:06;;;;;;;29.48;11.85;;;;;;;16.02;100.00;101801.78;5009566;28;20049;-73
2023/06/01 09:28:54;;;;;;;29.98;14.32;;;;;;;16.05;100.00;101793.31;5001767;28;20096;-76
2023/06/01 09:31:39;;;;;;;28.38;12.38;;;;;;;16.08;100.00;101797.28;5005696;28;20042;-73
2023/06/01 09:34:08;;;;;;;28.17;13.43;;;;;;;16.14;100.00;101796.31;4999430;28;20514;-75
2023/06/01 09:36:36;;;;;;;31.15;13.45;;;;;;;16.26;100.00;101797.75;5007650;28;20129;-73
2023/06/01 09:39:07;;;;;;;33.63;15.95;;;;;;;16.29;100.00;101789.25;5018291;28;20069;-75
2023/06/01 09:41:49;;;;;;;29.65;14.30;;;;;;;16.38;100.00;101795.09;5009746;28;20054;-73
2023/06/01 09:44:22;;;;;;;36.15;16.98;;;;;;;16.39;100.00;101782.66;5011495;28;20427;-75
2023/06/01 09:46:53;;;;;;;30.00;13.80;;;;;;;16.46;100.00;101782.50;5017927;28;20054;-75
2023/06/01 09:49:26;;;;;;;35.50;14.48;;;;;;;16.57;100.00;101785.88;5016073;28;20051;-76
2023/06/01 09:52:08;;;;;;;33.67;16.17;;;;;;;16.72;100.00;101783.56;5007580;28;20545;-74
2023/06/01 09:54:58;;;;;;;32.70;16.50;;;;;;;16.83;100.00;101784.09;5018562;28;20128;-74
2023/06/01 09:57:26;;;;;;;28.48;13.45;;;;;;;16.77;100.00;101778.22;4999769;28;20113;-75
2023/06/01 09:59:53;;;;;;;29.10;13.27;;;;;;;16.78;100.00;101779.78;5010170;28;20108;-75
2023/06/01 10:02:22;;;;;;;29.35;14.13;;;;;;;16.88;100.00;101778.75;5008810;28;20066;-75
2023/06/01 10:04:55;;;;;;;31.45;13.68;;;;;;;17.03;100.00;101777.22;5008969;28;20054;-73
2023/06/01 10:07:23;;;;;;;28.45;12.25;;;;;;;17.08;100.00;101776.69;5003112;28;20076;-74
2023/06/01 10:09:51;;;;;;;28.65;12.70;;;;;;;17.23;100.00;101775.16;5004971;28;20163;-73
2023/06/01 10:12:18;;;;;;;26.80;12.63;;;;;;;17.27;100.00;101775.88;4999495;28;20049;-75
2023/06/01 10:14:45;;;;;;;27.10;12.70;;;;;;;17.33;100.00;101771.31;5015574;28;20084;-75
2023/06/01 10:17:14;;;;;;;27.88;12.52;;;;;;;17.27;100.00;101766.63;5005093;28;20145;-71
2023/06/01 10:19:41;;;;;;;27.55;12.95;;;;;;;17.31;100.00;101773.75;5009934;28;20057;-72
2023/06/01 10:22:10;;;;;;;30.35;13.38;;;;;;;17.45;100.00;101775.41;5014420;28;20053;-75
2023/06/01 10:24:40;;;;;;;24.38;11.85;;;;;;;17.63;100.00;101764.53;5009667;28;20539;-74
2023/06/01 10:27:26;;;;;;;22.20;10.30;;;;;;;17.80;100.00;101765.28;5005531;28;20590;-73
2023/06/01 10:29:54;;;;;;;24.60;12.30;;;;;;;18.01;100.00;101764.72;5009642;28;20084;-74
2023/06/01 10:32:43;;;;;;;31.33;11.68;;;;;;;18.09;100.00;101771.78;5017004;28;20046;-74
2023/06/01 10:35:42;;;;;;;23.95;10.43;;;;;;;18.24;100.00;101758.88;5002676;28;20116;-74
2023/06/01 10:38:09;;;;;;;22.98;8.88;;;;;;;18.29;100.00;101766.78;4981687;28;20048;-74
2023/06/01 10:40:37;;;;;;;24.15;10.32;;;;;;;18.16;100.00;101761.06;5008031;28;20116;-73
2023/06/01 10:43:05;;;;;;;25.73;10.95;;;;;;;18.17;100.00;101756.25;5011249;28;20045;-72
2023/06/01 10:45:39;;;;;;;22.45;9.98;;;;;;;18.36;100.00;101750.44;5008073;28;20505;-73
2023/06/01 10:48:11;;;;;;;21.67;9.57;;;;;;;18.45;100.00;101744.16;5003767;28;20053;-75
2023/06/01 10:50:39;;;;;;;26.42;9.55;;;;;;;18.59;100.00;101755.81;5005326;28;20057;-74
2023/06/01 10:53:27;;;;;;;23.50;9.85;;;;;;;18.79;100.00;101752.81;5004102;28;20100;-74
2023/06/01 10:56:26;;;;;;;22.73;9.85;;;;;;;18.93;100.00;101749.53;5007368;28;20101;-74
2023/06/01 10:59:08;;;;;;;25.55;9.25;;;;;;;18.95;100.00;101750.69;5010001;28;20415;-75
2023/06/01 11:01:45;;;;;;;23.25;10.13;;;;;;;19.06;100.00;101751.13;4996656;28;20497;-72
2023/06/01 11:04:13;;;;;;;22.02;8.73;;;;;;;19.23;100.00;101752.59;5001358;28;20073;-74
2023/06/01 11:06:42;;;;;;;21.02;9.48;;;;;;;19.25;100.00;101754.97;5008123;28;20558;-74
2023/06/01 11:09:10;;;;;;;21.30;9.57;;;;;;;19.26;100.00;101753.72;5008768;28;20094;-74
2023/06/01 11:11:52;;;;;;;22.80;9.95;;;;;;;19.12;100.00;101754.97;5016175;28;20112;-73